Aviation Digital Data Service (ADDS)

Output produced by METARs form (1855 UTC 18 June 2019)
found at http://www.aviationweather.gov/metar/data/
 
EFET 181850Z AUTO 36009KT 9999 -RA OVC044 09/08 Q1005
EFHA 181850Z AUTO 25012KT CAVOK 20/09 Q1012
TAF EFHA 181121Z 1812/1814 25015KT CAVOK
       
EFHK 181850Z 23009KT CAVOK 20/12 Q1014 NOSIG
TAF EFHK 181735Z 1818/1918 24010KT CAVOK
       
EFIV 181850Z AUTO 04004KT 360V060 9999 -SHRA NSC 12/03 Q1006
TAF EFIV 180830Z 1809/1813 03007KT CAVOK
       
EFJO 181850Z 24005KT 190V280 CAVOK 23/10 Q1009
TAF EFJO 181722Z 1818/1823 26008KT CAVOK
       
EFJY 181850Z AUTO 25007KT 220V280 CAVOK 20/08 Q1011
TAF EFJY 181735Z 1818/1918 24006KT CAVOK 
     BECMG 1901/1903 SCT050CB 
     PROB40 
     TEMPO 1903/1915 7000 TSRA 
     BECMG 1915/1917 FEW040
       
EFKI 181850Z AUTO 27010KT CAVOK 21/10 Q1007
TAF EFKI 181722Z 1818/1821 26008KT CAVOK 
     PROB30 1818/1820 FEW050CB
       
EFKE 181850Z AUTO 19008KT CAVOK 14/12 Q1004
TAF AMD EFKE 181531Z 1815/1818 21011KT CAVOK 
     PROB30 1816/1818 7000 SHRA FEW030CB
       
EFKT 181850Z AUTO 12004KT 9999 -RA FEW028 OVC050 13/08 Q1004
TAF EFKT 180830Z 1809/1812 04006KT CAVOK
       
EFKK 181850Z AUTO 21013KT 180V240 CAVOK 20/10 Q1008
TAF EFKK 181722Z 1818/1823 22013KT CAVOK
       
EFKU 181850Z AUTO 24008KT CAVOK 23/09 Q1009
TAF EFKU 181722Z 1818/1918 24010KT CAVOK 
     BECMG 1903/1905 SCT040CB 
     PROB30 1905/1907 BKN011 
     PROB40 1911/1917 7000 TSRA
       
EFKS 181850Z AUTO 16006KT 130V190 CAVOK 16/14 Q1006
TAF AMD EFKS 180934Z 1809/1813 13007KT CAVOK 
     TEMPO 1809/1812 TSRA SCT030CB
       
EFLP 181850Z AUTO 26006KT CAVOK 22/10 Q1012
EFMA 181850Z AUTO 22006KT CAVOK 16/12 Q1015
TAF EFMA 181735Z 1818/1903 20008KT CAVOK 
     PROB40 
     TEMPO 1821/1824 FEW050CB 
     BECMG 1900/1902 SCT050CB 
     PROB30 1901/1903 7000 TSRA
       
EFMI 181850Z AUTO 25006KT 230V290 CAVOK ///// Q////
EFOU 181850Z AUTO 24013KT CAVOK 19/09 Q1006
TAF EFOU 181722Z 1818/1918 25009KT CAVOK
       
EFPO 181850Z AUTO 22006KT 190V250 CAVOK 19/10 Q1013
TAF EFPO 181121Z 1812/1814 25012KT CAVOK
       
EFRO 181850Z AUTO VRB03KT 090V210 9999 -SHRA FEW032 BKN070 BKN085 16/13 Q1004
TAF EFRO 181722Z 1818/1918 20008KT CAVOK 
     TEMPO 1818/1821 22015G25KT 6000 TSRA SCT050CB 
     BECMG 1821/1823 BKN005 
     PROB40 1823/1902 5000 -DZ BKN004 
     BECMG 1902/1904 29011KT BKN015
       
EFSA 181850Z AUTO 24005KT CAVOK 22/10 Q1011
TAF EFSA 181429Z 1815/1819 27007KT CAVOK
       
EFSI 181850Z AUTO 21005KT 090V270 CAVOK 19/10 Q1010
EFTP 181850Z AUTO 24007KT CAVOK 19/10 Q1013
TAF EFTP 181735Z 1818/1918 24012KT CAVOK 
     BECMG 1900/1902 SCT050CB 
     PROB40 
     TEMPO 1902/1915 7000 TSRA 
     BECMG 1915/1918 FEW040
       
EFTU 181850Z AUTO 21008KT CAVOK 20/12 Q1014
TAF EFTU 181735Z 1818/1918 23009KT CAVOK 
     TEMPO 1901/1912 FEW050CB 
     PROB30 
     TEMPO 1903/1907 TS
       
EFUT 181850Z AUTO 28006KT CAVOK 22/10 Q1013
TAF AMD EFUT 181027Z 1810/1813 28010KT CAVOK 
     TEMPO 1810/1812 FEW050TCU
       
EFVA 181850Z AUTO 21009KT CAVOK 17/10 Q1009
TAF EFVA 181722Z 1818/1918 21011KT CAVOK 
     TEMPO 1821/1823 FEW020TCU 
     TEMPO 1903/1906 FEW050CB